Time;durP1;ratioP1;P1;durP2;ratioP2;P2;SDS_P1;SDS_P2;PMS_P1;PMS_P2;Temp;Humidity;BMP_temperature;BMP_pressure;BME280_temperature;BME280_humidity;BME280_pressure;Samples;Min_cycle;Max_cycle;Signal;HPM_P1;HPM_P2
2024/04/08 00:00:10;;;;;;;;;;;;;;;4.93;100.00;99410.81;5056415;28;19963;-84
2024/04/08 00:02:36;;;;;;;;;;;;;;;4.91;100.00;99407.47;5056446;28;20025;-84
2024/04/08 00:05:01;;;;;;;;;;;;;;;4.88;100.00;99413.16;5072709;28;19916;-85
2024/04/08 00:07:27;;;;;;;;;;;;;;;4.83;100.00;99414.47;5072850;28;20066;-85
2024/04/08 00:09:52;;;;;;;;;;;;;;;4.78;100.00;99424.00;5056354;28;19913;-84
2024/04/08 00:12:18;;;;;;;;;;;;;;;4.74;100.00;99423.53;5056392;28;19920;-84
2024/04/08 00:14:43;;;;;;;;;;;;;;;4.64;100.00;99422.88;5056617;28;19961;-84
2024/04/08 00:17:09;;;;;;;;;;;;;;;4.58;100.00;99427.06;5057630;28;20366;-83
2024/04/08 00:19:35;;;;;;;;;;;;;;;4.46;100.00;99422.25;5076316;28;19947;-84
2024/04/08 00:22:01;;;;;;;;;;;;;;;4.34;100.00;99416.44;5075726;28;19912;-84
2024/04/08 00:24:27;;;;;;;;;;;;;;;4.32;100.00;99407.81;5056429;28;19923;-84
2024/04/08 00:26:52;;;;;;;;;;;;;;;4.28;100.00;99404.63;5072773;28;19916;-84
2024/04/08 00:29:18;;;;;;;;;;;;;;;4.38;100.00;99405.28;5056286;28;20355;-85
2024/04/08 00:31:43;;;;;;;;;;;;;;;4.48;100.00;99401.63;5072717;28;20373;-84
2024/04/08 00:34:08;;;;;;;;;;;;;;;4.58;100.00;99395.09;5056202;28;19912;-84
2024/04/08 00:36:34;;;;;;;;;;;;;;;4.67;100.00;99397.75;5058011;28;19918;-84
2024/04/08 00:39:00;;;;;;;;;;;;;;;4.72;100.00;99398.06;5077219;28;19919;-84
2024/04/08 00:41:26;;;;;;;;;;;;;;;4.71;100.00;99393.72;5060018;28;19912;-84
2024/04/08 00:43:51;;;;;;;;;;;;;;;4.72;100.00;99390.06;5076478;28;19913;-85
2024/04/08 00:46:17;;;;;;;;;;;;;;;4.74;100.00;99388.91;5059819;28;20278;-84
2024/04/08 00:48:42;;;;;;;;;;;;;;;4.73;100.00;99384.56;5076436;28;19913;-85
2024/04/08 00:51:08;;;;;;;;;;;;;;;4.71;100.00;99375.94;5059863;28;19958;-85
2024/04/08 00:53:33;;;;;;;;;;;;;;;4.66;100.00;99380.94;5076261;28;19924;-84
2024/04/08 00:55:58;;;;;;;;;;;;;;;4.65;100.00;99381.94;5060399;28;20346;-84
2024/04/08 00:58:24;;;;;;;;;;;;;;;4.61;100.00;99378.78;5059560;28;20317;-85
2024/04/08 01:00:50;;;;;;;;;;;;;;;4.60;100.00;99394.91;5059766;28;19912;-85
2024/04/08 01:03:16;;;;;;;;;;;;;;;4.60;100.00;99389.59;5060245;28;19966;-85
2024/04/08 01:05:41;;;;;;;;;;;;;;;4.57;100.00;99381.94;5059677;28;20347;-85
2024/04/08 01:08:06;;;;;;;;;;;;;;;4.49;100.00;99387.31;5075802;28;19916;-85
2024/04/08 01:10:32;;;;;;;;;;;;;;;4.44;100.00;99382.47;5076055;28;19912;-85
2024/04/08 01:12:57;;;;;;;;;;;;;;;4.43;100.00;99388.00;5076038;28;19973;-84
2024/04/08 01:15:24;;;;;;;;;;;;;;;4.41;100.00;99386.31;5076018;28;20343;-85
2024/04/08 01:17:50;;;;;;;;;;;;;;;4.33;100.00;99388.16;5075500;28;19959;-85
2024/04/08 01:20:15;;;;;;;;;;;;;;;4.28;100.00;99378.03;5059956;28;20355;-84
2024/04/08 01:22:41;;;;;;;;;;;;;;;4.23;100.00;99376.88;5059297;28;19912;-85
2024/04/08 01:25:07;;;;;;;;;;;;;;;4.21;100.00;99379.72;5059241;28;19923;-84
2024/04/08 01:27:32;;;;;;;;;;;;;;;4.10;100.00;99370.25;5075652;28;20366;-85
2024/04/08 01:29:58;;;;;;;;;;;;;;;4.04;100.00;99380.72;5075358;28;19927;-86
2024/04/08 01:32:23;;;;;;;;;;;;;;;3.95;100.00;99375.41;5058998;28;19919;-85
2024/04/08 01:34:48;;;;;;;;;;;;;;;3.91;100.00;99370.59;5058993;28;19962;-85
2024/04/08 01:37:14;;;;;;;;;;;;;;;3.88;100.00;99374.41;5058931;28;20343;-84
2024/04/08 01:39:39;;;;;;;;;;;;;;;3.83;100.00;99371.41;5058969;28;19919;-85
2024/04/08 01:42:05;;;;;;;;;;;;;;;3.80;100.00;99371.75;5075400;28;19995;-84
2024/04/08 01:44:30;;;;;;;;;;;;;;;3.81;100.00;99372.56;5058606;28;19920;-85
2024/04/08 01:46:56;;;;;;;;;;;;;;;3.81;100.00;99368.13;5075210;28;19916;-85
2024/04/08 01:49:26;;;;;;;;;;;;;;;3.83;100.00;99360.78;5074286;28;19919;-85
2024/04/08 01:51:52;;;;;;;;;;;;;;;3.86;100.00;99354.28;5058693;28;19920;-85
2024/04/08 01:54:17;;;;;;;;;;;;;;;3.87;100.00;99355.97;5075146;28;19916;-85
2024/04/08 01:56:43;;;;;;;;;;;;;;;3.83;100.00;99344.81;5058659;28;19935;-84
2024/04/08 01:59:09;;;;;;;;;;;;;;;3.78;100.00;99341.84;5058281;28;19959;-85
2024/04/08 02:01:34;;;;;;;;;;;;;;;3.77;100.00;99332.22;5074737;28;19943;-84
2024/04/08 02:04:00;;;;;;;;;;;;;;;3.73;100.00;99333.53;5074745;28;20380;-84
2024/04/08 02:06:25;;;;;;;;;;;;;;;3.67;100.00;99334.19;5074692;28;19912;-84
2024/04/08 02:08:51;;;;;;;;;;;;;;;3.63;100.00;99332.88;5074871;28;19913;-84
2024/04/08 02:11:16;;;;;;;;;;;;;;;3.66;100.00;99332.56;5058412;28;19913;-85
2024/04/08 02:13:44;;;;;;;;;;;;;;;3.65;100.00;99331.72;5058097;28;20002;-85
2024/04/08 02:16:10;;;;;;;;;;;;;;;3.68;100.00;99341.19;5058231;28;19913;-86
2024/04/08 02:18:35;;;;;;;;;;;;;;;3.74;100.00;99335.22;5074360;28;19916;-85
2024/04/08 02:21:01;;;;;;;;;;;;;;;3.79;100.00;99335.53;5058190;28;20286;-83
2024/04/08 02:23:26;;;;;;;;;;;;;;;3.82;100.00;99337.84;5074656;28;19974;-85
2024/04/08 02:25:52;;;;;;;;;;;;;;;3.80;100.00;99333.72;5058123;28;19919;-84
2024/04/08 02:28:18;;;;;;;;;;;;;;;3.77;100.00;99326.91;5058030;28;20006;-85
2024/04/08 02:30:43;;;;;;;;;;;;;;;3.80;100.00;99325.72;5074527;28;19912;-85
2024/04/08 02:33:09;;;;;;;;;;;;;;;3.77;100.00;99326.91;5057958;28;20003;-85
2024/04/08 02:35:34;;;;;;;;;;;;;;;3.75;100.00;99326.22;5057594;28;19912;-85
2024/04/08 02:38:01;;;;;;;;;;;;;;;3.74;100.00;99324.56;5073924;28;19912;-87
2024/04/08 02:40:26;;;;;;;;;;;;;;;3.73;100.00;99331.72;5058054;28;19962;-85
2024/04/08 02:42:52;;;;;;;;;;;;;;;3.71;100.00;99339.03;5057856;28;19916;-85
2024/04/08 02:45:17;;;;;;;;;;;;;;;3.68;100.00;99335.88;5074610;28;19916;-85
2024/04/08 02:47:43;;;;;;;;;;;;;;;3.67;100.00;99334.19;5069117;28;19897;-87
2024/04/08 02:50:08;;;;;;;;;;;;;;;3.70;100.00;99333.88;5100104;28;19947;-84
2024/04/08 02:52:33;;;;;;;;;;;;;;;3.74;100.00;99328.06;5065202;28;20116;-85
2024/04/08 02:54:59;;;;;;;;;;;;;;;3.77;100.00;99326.91;5073969;28;19982;-85
2024/04/08 02:57:24;;;;;;;;;;;;;;;3.78;100.00;99335.69;5073850;28;19912;-86
2024/04/08 02:59:50;;;;;;;;;;;;;;;3.75;100.00;99334.19;5073763;28;19912;-84
2024/04/08 03:02:15;;;;;;;;;;;;;;;3.73;100.00;99334.38;5073577;28;20354;-84
2024/04/08 03:04:41;;;;;;;;;;;;;;;3.73;100.00;99330.88;5057343;28;19916;-84
2024/04/08 03:07:06;;;;;;;;;;;;;;;3.79;100.00;99327.56;5057292;28;19919;-85
2024/04/08 03:09:32;;;;;;;;;;;;;;;3.85;100.00;99326.88;5057320;28;19927;-85
2024/04/08 03:11:57;;;;;;;;;;;;;;;3.84;100.00;99319.91;5073668;28;20268;-84
2024/04/08 03:14:22;;;;;;;;;;;;;;;3.87;100.00;99327.56;5057162;28;19965;-85
2024/04/08 03:16:48;;;;;;;;;;;;;;;3.93;100.00;99329.53;5073550;28;19916;-84
2024/04/08 03:19:14;;;;;;;;;;;;;;;4.00;100.00;99327.03;5073524;28;20285;-84
2024/04/08 03:21:39;;;;;;;;;;;;;;;4.06;100.00;99325.53;5057049;28;19912;-85
2024/04/08 03:24:05;;;;;;;;;;;;;;;4.10;100.00;99324.19;5073225;28;19919;-85
2024/04/08 03:26:30;;;;;;;;;;;;;;;4.09;100.00;99334.00;5057043;28;19913;-85
2024/04/08 03:28:56;;;;;;;;;;;;;;;4.08;100.00;99327.03;5056740;28;19955;-85
2024/04/08 03:31:21;;;;;;;;;;;;;;;4.04;100.00;99325.69;5056893;28;19936;-85
2024/04/08 03:33:47;;;;;;;;;;;;;;;4.03;100.00;99320.56;5073470;28;19916;-85
2024/04/08 03:36:16;;;;;;;;;;;;;;;4.03;100.00;99328.53;5073087;28;20011;-85
2024/04/08 03:38:43;;;;;;;;;;;;;;;4.07;100.00;99327.19;5057118;28;19918;-85
2024/04/08 03:41:08;;;;;;;;;;;;;;;4.08;100.00;99328.88;5056758;28;19912;-86
2024/04/08 03:43:34;;;;;;;;;;;;;;;4.08;100.00;99320.88;5073077;28;19949;-85
2024/04/08 03:46:00;;;;;;;;;;;;;;;4.05;100.00;99323.84;5056519;28;19923;-85
2024/04/08 03:48:25;;;;;;;;;;;;;;;4.00;100.00;99329.69;5056612;28;19912;-85
2024/04/08 03:50:51;;;;;;;;;;;;;;;4.01;100.00;99328.69;5040007;28;19991;-85
2024/04/08 03:53:16;;;;;;;;;;;;;;;4.03;100.00;99328.53;5072873;28;19939;-85
2024/04/08 03:55:42;;;;;;;;;;;;;;;4.07;100.00;99329.84;5073098;28;19943;-86
2024/04/08 03:58:07;;;;;;;;;;;;;;;4.08;100.00;99332.34;5072981;28;19921;-86
2024/04/08 04:00:33;;;;;;;;;;;;;;;4.06;100.00;99330.84;5056577;28;19913;-86
2024/04/08 04:02:58;;;;;;;;;;;;;;;4.06;100.00;99338.84;5056483;28;20369;-85
2024/04/08 04:05:24;;;;;;;;;;;;;;;4.05;100.00;99332.69;5056347;28;19912;-85
2024/04/08 04:07:49;;;;;;;;;;;;;;;4.05;100.00;99330.03;5072799;28;20003;-85
2024/04/08 04:10:17;;;;;;;;;;;;;;;4.02;100.00;99333.00;5055953;28;19912;-85
2024/04/08 04:12:43;;;;;;;;;;;;;;;4.01;100.00;99328.69;5072433;28;19912;-87
2024/04/08 04:15:15;;;;;;;;;;;;;;;4.00;100.00;99319.06;5072522;28;19920;-86
2024/04/08 04:17:41;;;;;;;;;;;;;;;3.95;100.00;99316.91;5056286;28;20358;-85
2024/04/08 04:20:09;;;;;;;;;;;;;;;3.89;100.00;99320.25;5072806;28;19923;-85
2024/04/08 04:22:35;;;;;;;;;;;;;;;3.84;100.00;99321.75;5056467;28;19923;-85
2024/04/08 04:25:01;;;;;;;;;;;;;;;3.83;100.00;99328.88;5072736;28;19912;-84
2024/04/08 04:27:26;;;;;;;;;;;;;;;3.88;100.00;99336.34;5056184;28;19923;-85
2024/04/08 04:29:52;;;;;;;;;;;;;;;3.99;100.00;99327.19;5072672;28;19917;-85
2024/04/08 04:32:18;;;;;;;;;;;;;;;4.02;100.00;99329.53;5072739;28;20023;-85
2024/04/08 04:34:43;;;;;;;;;;;;;;;4.02;100.00;99327.69;5056128;28;19917;-86
2024/04/08 04:37:08;;;;;;;;;;;;;;;3.98;100.00;99329.03;5072591;28;19912;-85
2024/04/08 04:39:34;;;;;;;;;;;;;;;3.92;100.00;99324.41;5055718;28;19912;-85
2024/04/08 04:41:59;;;;;;;;;;;;;;;3.90;100.00;99321.91;5056669;28;19916;-84
2024/04/08 04:44:25;;;;;;;;;;;;;;;3.87;100.00;99322.25;5072815;28;20274;-85
2024/04/08 04:46:50;;;;;;;;;;;;;;;3.91;100.00;99322.72;5056230;28;19920;-84
2024/04/08 04:49:16;;;;;;;;;;;;;;;3.96;100.00;99326.53;5072579;28;20325;-84
2024/04/08 04:51:44;;;;;;;;;;;;;;;4.01;100.00;99326.03;5055959;28;19912;-84
2024/04/08 04:54:10;;;;;;;;;;;;;;;4.01;100.00;99319.88;5055944;28;19919;-88
2024/04/08 04:56:35;;;;;;;;;;;;;;;4.02;100.00;99326.84;5072104;28;19912;-85
2024/04/08 04:59:01;;;;;;;;;;;;;;;3.99;100.00;99330.69;5055576;28;19994;-84
2024/04/08 05:01:26;;;;;;;;;;;;;;;3.99;100.00;99327.19;5055896;28;19920;-84
2024/04/08 05:03:52;;;;;;;;;;;;;;;4.03;100.00;99317.91;5055914;28;19918;-86
2024/04/08 05:06:17;;;;;;;;;;;;;;;4.07;100.00;99327.19;5056222;28;19916;-84
2024/04/08 05:08:43;;;;;;;;;;;;;;;4.07;100.00;99325.34;5065622;28;19930;-83
2024/04/08 05:11:08;;;;;;;;;;;;;;;4.06;100.00;99328.19;5097604;28;19916;-84
2024/04/08 05:13:34;;;;;;;;;;;;;;;4.02;100.00;99322.38;5067377;28;19913;-85
2024/04/08 05:16:00;;;;;;;;;;;;;;;3.99;100.00;99322.69;5072366;28;20007;-85
2024/04/08 05:18:26;;;;;;;;;;;;;;;3.97;100.00;99319.41;5056182;28;19919;-84
2024/04/08 05:20:51;;;;;;;;;;;;;;;3.91;100.00;99328.84;5073291;28;20290;-87
2024/04/08 05:23:23;;;;;;;;;;;;;;;3.89;100.00;99320.25;5072833;28;19997;-85
2024/04/08 05:25:49;;;;;;;;;;;;;;;3.90;100.00;99329.88;5059289;28;19916;-83
2024/04/08 05:28:14;;;;;;;;;;;;;;;3.93;100.00;99324.22;5059269;28;19919;-84
2024/04/08 05:30:40;;;;;;;;;;;;;;;3.96;100.00;99318.56;5075341;28;19921;-85
2024/04/08 05:33:05;;;;;;;;;;;;;;;3.99;100.00;99313.91;5059118;28;19912;-84
2024/04/08 05:35:31;;;;;;;;;;;;;;;4.02;100.00;99316.22;5075326;28;19913;-85
2024/04/08 05:37:57;;;;;;;;;;;;;;;4.06;100.00;99310.41;5058972;28;20267;-85
2024/04/08 05:40:23;;;;;;;;;;;;;;;4.08;100.00;99313.72;5058948;28;19935;-84
2024/04/08 05:42:48;;;;;;;;;;;;;;;4.07;100.00;99311.22;5059001;28;19959;-84
2024/04/08 05:45:14;;;;;;;;;;;;;;;4.07;100.00;99314.72;5075307;28;20390;-86
2024/04/08 05:47:42;;;;;;;;;;;;;;;4.10;100.00;99305.56;5058902;28;20369;-85
2024/04/08 05:50:08;;;;;;;;;;;;;;;4.18;100.00;99305.53;5058558;28;19958;-84
2024/04/08 05:52:34;;;;;;;;;;;;;;;4.25;100.00;99300.38;5075305;28;19940;-85
2024/04/08 05:54:59;;;;;;;;;;;;;;;4.32;100.00;99306.69;5058694;28;19912;-84
2024/04/08 05:57:25;;;;;;;;;;;;;;;4.35;100.00;99296.53;5074710;28;19912;-85
2024/04/08 05:59:50;;;;;;;;;;;;;;;4.40;100.00;99307.47;5058564;28;19919;-85
2024/04/08 06:02:16;;;;;;;;;;;;;;;4.44;100.00;99304.47;5059173;28;19951;-85
2024/04/08 06:04:41;;;;;;;;;;;;;;;4.50;100.00;99312.63;5075055;28;20372;-84
2024/04/08 06:07:08;;;;;;;;;;;;;;;4.53;100.00;99314.09;5058446;28;19934;-84
2024/04/08 06:09:34;;;;;;;;;;;;;;;4.57;100.00;99323.38;5058646;28;19928;-85
2024/04/08 06:11:59;;;;;;;;;;;;;;;4.60;100.00;99315.06;5058310;28;20301;-85
2024/04/08 06:14:25;;;;;;;;;;;;;;;4.59;100.00;99313.41;5058907;28;19917;-85
2024/04/08 06:16:50;;;;;;;;;;;;;;;4.57;100.00;99316.22;5058249;28;19935;-85
2024/04/08 06:19:16;;;;;;;;;;;;;;;4.57;100.00;99326.06;5057932;28;19966;-84
2024/04/08 06:21:41;;;;;;;;;;;;;;;4.56;100.00;99319.09;5057907;28;19960;-85
2024/04/08 06:24:07;;;;;;;;;;;;;;;4.59;100.00;99322.22;5074589;28;19920;-86
2024/04/08 06:26:33;;;;;;;;;;;;;;;4.67;100.00;99325.84;5074574;28;19935;-84
2024/04/08 06:28:58;;;;;;;;;;;;;;;4.72;100.00;99321.66;5058019;28;20346;-84
2024/04/08 06:31:24;;;;;;;;;;;;;;;4.76;100.00;99320.34;5058071;28;20359;-85
2024/04/08 06:33:49;;;;;;;;;;;;;;;4.81;100.00;99317.94;5074010;28;20355;-85
2024/04/08 06:36:15;;;;;;;;;;;;;;;4.85;100.00;99305.97;5057888;28;19995;-84
2024/04/08 06:38:40;;;;;;;;;;;;;;;4.88;100.00;99314.59;5057613;28;19935;-85
2024/04/08 06:41:06;;;;;;;;;;;;;;;4.93;100.00;99314.91;5073770;28;19912;-85
2024/04/08 06:43:31;;;;;;;;;;;;;;;4.97;100.00;99317.03;5057829;28;19912;-84
2024/04/08 06:45:57;;;;;;;;;;;;;;;5.02;100.00;99322.66;5073933;28;19999;-85
2024/04/08 06:48:22;;;;;;;;;;;;;;;5.08;100.00;99326.50;5057065;28;19912;-86
2024/04/08 06:50:48;;;;;;;;;;;;;;;5.16;100.00;99322.91;5057718;28;20275;-87
2024/04/08 06:53:14;;;;;;;;;;;;;;;5.23;100.00;99322.03;5073825;28;19916;-85
2024/04/08 06:55:39;;;;;;;;;;;;;;;5.31;100.00;99331.00;5057411;28;20347;-85
2024/04/08 06:58:07;;;;;;;;;;;;;;;5.35;100.00;99322.47;5073588;28;20011;-85
2024/04/08 07:00:32;;;;;;;;;;;;;;;5.38;100.00;99327.44;5057282;28;20359;-85
2024/04/08 07:02:58;;;;;;;;;;;;;;;5.41;100.00;99328.94;5057282;28;19930;-85
2024/04/08 07:05:23;;;;;;;;;;;;;;;5.42;100.00;99331.41;5066825;28;19919;-86
2024/04/08 07:07:53;;;;;;;;;;;;;;;5.44;100.00;99315.25;5083224;28;20383;-84
2024/04/08 07:10:18;;;;;;;;;;;;;;;5.44;100.00;99310.75;5062637;28;19916;-84
2024/04/08 07:12:44;;;;;;;;;;;;;;;5.47;100.00;99322.88;5078383;28;19920;-84
2024/04/08 07:15:09;;;;;;;;;;;;;;;5.50;100.00;99327.84;5075974;28;20389;-85
2024/04/08 07:17:35;;;;;;;;;;;;;;;5.57;100.00;99328.81;5057195;28;19912;-85
2024/04/08 07:20:00;;;;;;;;;;;;;;;5.63;100.00;99321.94;5057811;28;19913;-84
2024/04/08 07:22:26;;;;;;;;;;;;;;;5.67;100.00;99321.41;5057678;28;19939;-85
2024/04/08 07:24:51;;;;;;;;;;;;;;;5.78;100.00;99327.31;5057563;28;19912;-85
2024/04/08 07:27:17;;;;;;;;;;;;;;;5.84;100.00;99331.94;5073901;28;20011;-85
2024/04/08 07:29:43;;;;;;;;;;;;;;;5.90;100.00;99339.19;5057412;28;19913;-85
2024/04/08 07:32:08;;;;;;;;;;;;;;;5.99;100.00;99329.34;5057730;28;20011;-85
2024/04/08 07:34:34;;;;;;;;;;;;;;;6.04;100.00;99326.94;5073700;28;20327;-88
2024/04/08 07:36:59;;;;;;;;;;;;;;;6.08;100.00;99341.56;5060021;28;20018;-84
2024/04/08 07:39:25;;;;;;;;;;;;;;;6.12;100.00;99340.22;5075644;28;19944;-84
2024/04/08 07:41:51;;;;;;;;;;;;;;;6.14;100.00;99336.34;5092539;28;19912;-85
2024/04/08 07:44:16;;;;;;;;;;;;;;;6.21;100.00;99346.28;5058148;28;19919;-85
2024/04/08 07:46:42;;;;;;;;;;;;;;;6.27;100.00;99341.06;5056581;28;19916;-85
2024/04/08 07:49:07;;;;;;;;;;;;;;;6.32;100.00;99343.16;5057434;28;19928;-86
2024/04/08 07:51:33;;;;;;;;;;;;;;;6.36;100.00;99349.81;5057570;28;19919;-85
2024/04/08 07:53:59;;;;;;;;;;;;;;;6.41;100.00;99344.75;5073800;28;20390;-85
2024/04/08 07:56:25;;;;;;;;;;;;;;;6.49;100.00;99343.84;5040634;28;19912;-87
2024/04/08 07:58:51;;;;;;;;;;;;;;;6.55;100.00;99343.91;5055778;28;19923;-89
2024/04/08 08:01:16;;;;;;;;;;;;;;;6.63;100.00;99343.00;5055533;28;19966;-89
2024/04/08 08:03:42;;;;;;;;;;;;;;;6.69;100.00;99346.75;5056896;28;20309;-90
2024/04/08 08:06:08;;;;;;;;;;;;;;;6.75;100.00;99348.72;5073090;28;19923;-89
2024/04/08 08:08:33;;;;;;;;;;;;;;;6.78;100.00;99335.81;5073445;28;20354;-89
2024/04/08 08:11:05;;;;;;;;;;;;;;;6.80;100.00;99343.59;5056421;28;20404;-90
2024/04/08 08:13:30;;;;;;;;;;;;;;;6.85;100.00;99343.88;5056974;28;19919;-90
2024/04/08 08:15:57;;;;;;;;;;;;;;;6.94;100.00;99347.31;5056724;28;20278;-91
2024/04/08 08:18:22;;;;;;;;;;;;;;;7.05;100.00;99342.28;5056780;28;20362;-92
2024/04/08 08:20:48;;;;;;;;;;;;;;;7.14;100.00;99350.19;5056661;28;19916;-90
2024/04/08 08:23:15;;;;;;;;;;;;;;;7.11;100.00;99350.56;5057226;28;19938;-90
2024/04/08 08:25:40;;;;;;;;;;;;;;;7.03;100.00;99352.34;5057782;28;19951;-90
2024/04/08 08:28:06;;;;;;;;;;;;;;;7.00;100.00;99351.88;5074453;28;19966;-92
2024/04/08 08:30:35;;;;;;;;;;;;;;;6.99;100.00;99345.72;5087901;28;19913;-90
2024/04/08 08:33:01;;;;;;;;;;;;;;;6.94;100.00;99341.97;5075034;28;19916;-90
2024/04/08 08:35:26;;;;;;;;;;;;;;;6.92;100.00;99339.47;5075254;28;19934;-90
2024/04/08 08:37:52;;;;;;;;;;;;;;;6.92;100.00;99349.31;5090499;28;19919;-90
2024/04/08 08:40:18;;;;;;;;;;;;;;;6.96;100.00;99348.78;5091683;28;19974;-91
2024/04/08 08:42:44;;;;;;;;;;;;;;;7.03;100.00;99357.69;5108963;28;19919;-91
2024/04/08 08:45:11;;;;;;;;;;;;;;;7.09;100.00;99345.41;5083971;28;19916;-91
2024/04/08 08:47:36;;;;;;;;;;;;;;;7.18;100.00;99338.13;5067834;28;19919;-90
2024/04/08 08:50:03;;;;;;;;;;;;;;;7.25;100.00;99330.97;5086291;28;19916;-90
2024/04/08 08:52:30;;;;;;;;;;;;;;;7.28;100.00;99327.97;5103174;28;19912;-91
2024/04/08 08:54:55;;;;;;;;;;;;;;;7.30;100.00;99333.09;5081209;28;19919;-90
2024/04/08 08:57:21;;;;;;;;;;;;;;;7.23;100.00;99335.72;5068073;28;20236;-90
2024/04/08 08:59:48;;;;;;;;;;;;;;;7.27;100.00;99334.31;5076866;28;19912;-90
2024/04/08 09:02:14;;;;;;;;;;;;;;;7.28;100.00;99349.34;5060258;28;20004;-90
2024/04/08 09:04:40;;;;;;;;;;;;;;;7.23;100.00;99343.72;5060421;28;19916;-91
2024/04/08 09:07:05;;;;;;;;;;;;;;;7.26;100.00;99346.03;5060251;28;19916;-91
2024/04/08 09:09:31;;;;;;;;;;;;;;;7.30;100.00;99341.94;5060025;28;20369;-90
2024/04/08 09:11:56;;;;;;;;;;;;;;;7.31;100.00;99340.94;5060217;28;19913;-90
2024/04/08 09:14:22;;;;;;;;;;;;;;;7.38;100.00;99344.53;5059703;28;19917;-90
2024/04/08 09:16:48;;;;;;;;;;;;;;;7.47;100.00;99348.72;5065841;28;19977;-90
2024/04/08 09:19:14;;;;;;;;;;;;;;;7.53;100.00;99346.31;5072613;28;20342;-90
2024/04/08 09:21:39;;;;;;;;;;;;;;;7.54;100.00;99353.28;5077052;28;19912;-90
2024/04/08 09:24:06;;;;;;;;;;;;;;;7.58;100.00;99349.22;5080678;28;20283;-90
2024/04/08 09:26:39;;;;;;;;;;;;;;;7.49;100.00;99341.34;5068859;28;19912;-90
2024/04/08 09:29:05;;;;;;;;;;;;;;;7.41;100.00;99345.97;5087305;28;19962;-89
2024/04/08 09:31:31;;;;;;;;;;;;;;;7.33;100.00;99340.72;5092300;28;19916;-90
2024/04/08 09:37:17;;;;;;;;;;;;;;;7.19;100.00;99340.59;5085955;28;19919;-90
2024/04/08 09:39:45;;;;;;;;;;;;;;;7.09;100.00;99345.41;5080909;28;19912;-89
2024/04/08 09:42:11;;;;;;;;;;;;;;;6.97;100.00;99350.41;5085986;28;20367;-90
2024/04/08 09:44:47;;;;;;;;;;;;;;;6.91;100.00;99350.34;5076691;28;19904;-90
2024/04/08 09:47:29;;;;;;;;;;;;;;;6.89;100.00;99363.06;5070689;28;19920;-90
2024/04/08 09:49:55;;;;;;;;;;;;;;;6.88;100.00;99353.38;5059226;28;19913;-91
2024/04/08 09:52:21;;;;;;;;;;;;;;;6.97;100.00;99354.94;5075481;28;20011;-90
2024/04/08 09:54:46;;;;;;;;;;;;;;;6.99;100.00;99352.91;5059185;28;20343;-89
2024/04/08 09:57:12;;;;;;;;;;;;;;;6.91;100.00;99351.19;5058670;28;20374;-89
2024/04/08 09:59:38;;;;;;;;;;;;;;;6.86;100.00;99350.91;5059198;28;20266;-90
2024/04/08 10:02:03;;;;;;;;;;;;;;;6.75;100.00;99364.75;5060226;28;19912;-89
2024/04/08 10:04:30;;;;;;;;;;;;;;;6.74;100.00;99355.88;5079831;28;19970;-92
2024/04/08 10:06:56;;;;;;;;;;;;;;;6.81;100.00;99361.31;5067526;28;19912;-88
2024/04/08 10:09:21;;;;;;;;;;;;;;;6.91;100.00;99361.88;5059595;28;19918;-90
2024/04/08 10:11:50;;;;;;;;;;;;;;;6.95;100.00;99364.97;5079120;28;19912;-89
2024/04/08 10:14:16;;;;;;;;;;;;;;;7.07;100.00;99362.69;5060722;28;19951;-90
2024/04/08 10:16:42;;;;;;;;;;;;;;;7.15;100.00;99367.91;5060607;28;19913;-91
2024/04/08 10:19:07;;;;;;;;;;;;;;;7.10;100.00;99371.13;5060452;28;20334;-91
2024/04/08 10:21:33;;;;;;;;;;;;;;;7.07;100.00;99365.34;5059432;28;19965;-91
2024/04/08 10:23:58;;;;;;;;;;;;;;;7.07;100.00;99374.19;5058833;28;19978;-91
2024/04/08 10:26:25;;;;;;;;;;;;;;;7.10;100.00;99364.97;5075900;28;20252;-91
2024/04/08 10:28:51;;;;;;;;;;;;;;;7.21;100.00;99364.47;5059671;28;19955;-91
2024/04/08 10:31:20;;;;;;;;;;;;;;;7.28;100.00;99365.38;5076641;28;20267;-91
2024/04/08 10:33:45;;;;;;;;;;;;;;;7.15;100.00;99367.91;5059384;28;19962;-91
2024/04/08 10:36:11;;;;;;;;;;;;;;;7.00;100.00;99363.41;5060739;28;19916;-91
2024/04/08 10:38:37;;;;;;;;;;;;;;;7.00;100.00;99363.41;5087071;28;20014;-91
2024/04/08 10:41:06;;;;;;;;;;;;;;;6.98;100.00;99357.41;5059274;28;20266;-92
2024/04/08 10:43:32;;;;;;;;;;;;;;;6.93;100.00;99365.19;5058778;28;20386;-92
2024/04/08 10:45:57;;;;;;;;;;;;;;;6.93;100.00;99365.19;5059298;28;19916;-91
2024/04/08 10:48:23;;;;;;;;;;;;;;;6.95;100.00;99363.13;5058553;28;20263;-92
2024/04/08 10:50:49;;;;;;;;;;;;;;;6.91;100.00;99363.72;5058478;28;20400;-91
2024/04/08 10:53:14;;;;;;;;;;;;;;;6.91;100.00;99364.53;5058793;28;19913;-90
2024/04/08 10:55:40;;;;;;;;;;;;;;;6.94;100.00;99368.69;5075017;28;19912;-91
2024/04/08 10:58:06;;;;;;;;;;;;;;;7.00;100.00;99367.91;5057947;28;20274;-91
2024/04/08 11:00:32;;;;;;;;;;;;;;;6.98;100.00;99367.28;5074628;28;19920;-92
2024/04/08 11:02:57;;;;;;;;;;;;;;;6.93;100.00;99364.34;5074334;28;19912;-91
2024/04/08 11:05:24;;;;;;;;;;;;;;;6.94;100.00;99358.81;5058720;28;19912;-90
2024/04/08 11:07:50;;;;;;;;;;;;;;;6.93;100.00;99357.16;5058342;28;20349;-90
2024/04/08 11:10:17;;;;;;;;;;;;;;;6.90;100.00;99359.38;5057867;28;20054;-91
2024/04/08 11:12:43;;;;;;;;;;;;;;;6.92;100.00;99363.50;5075045;28;19913;-90
2024/04/08 11:15:10;;;;;;;;;;;;;;;6.92;100.00;99363.50;5058045;28;19955;-92
2024/04/08 11:17:35;;;;;;;;;;;;;;;6.93;100.00;99362.50;5074141;28;19916;-90
2024/04/08 11:20:02;;;;;;;;;;;;;;;6.91;100.00;99367.22;5073884;28;19913;-91
2024/04/08 11:22:28;;;;;;;;;;;;;;;6.93;100.00;99367.84;5073981;28;19913;-91
2024/04/08 11:25:00;;;;;;;;;;;;;;;6.94;100.00;99372.16;5074003;28;19913;-91
2024/04/08 11:27:26;;;;;;;;;;;;;;;6.90;100.00;99372.72;5057418;28;20016;-90
2024/04/08 11:29:51;;;;;;;;;;;;;;;6.81;100.00;99378.16;5057196;28;20437;-91
2024/04/08 11:32:17;;;;;;;;;;;;;;;6.85;100.00;99370.59;5057209;28;20018;-89
2024/04/08 11:34:43;;;;;;;;;;;;;;;6.89;100.00;99371.91;5073615;28;20274;-90
2024/04/08 11:37:09;;;;;;;;;;;;;;;6.97;100.00;99369.13;5073839;28;19931;-89
2024/04/08 11:39:36;;;;;;;;;;;;;;;6.93;100.00;99365.19;5089903;28;19972;-89
2024/04/08 11:42:02;;;;;;;;;;;;;;;6.89;100.00;99366.56;5074071;28;19912;-89
2024/04/08 11:44:31;;;;;;;;;;;;;;;6.86;100.00;99372.28;5056763;28;19913;-89
2024/04/08 11:46:56;;;;;;;;;;;;;;;6.92;100.00;99373.38;5073179;28;19916;-89
2024/04/08 11:49:22;;;;;;;;;;;;;;;7.07;100.00;99370.69;5073527;28;19919;-90
2024/04/08 11:53:37;;;;;;;;;;;;;;;7.46;100.00;99372.97;5473381;26;19940;-89
2024/04/08 11:56:03;;;;;;;;;;;;;;;7.60;100.00;99368.59;5411980;26;19929;-88
2024/04/08 11:58:28;;;;;;;;;;;;;;;7.69;100.00;99383.50;5441447;26;19940;-88
2024/04/08 12:00:54;;;;;;;;;;;;;;;7.77;100.00;99386.03;5411749;26;19965;-89
2024/04/08 12:03:20;;;;;;;;;;;;;;;7.88;100.00;99382.84;5441461;26;19939;-89
2024/04/08 12:05:45;;;;;;;;;;;;;;;7.96;100.00;99381.88;5441855;26;19929;-89
2024/04/08 12:08:10;;;;;;;;;;;;;;;8.01;100.00;99386.66;5413182;26;19935;-88
2024/04/08 12:10:36;;;;;;;;;;;;;;;7.99;100.00;99383.34;5452858;26;19936;-89
2024/04/08 12:13:16;;;;;;;;;;;;;;;8.08;100.00;99387.56;5459459;26;19926;-89
2024/04/08 12:15:41;;;;;;;;;;;;;;;8.00;100.00;99388.53;5459298;26;19935;-90
2024/04/08 12:18:07;;;;;;;;;;;;;;;7.93;100.00;99387.63;5441552;26;20254;-90
2024/04/08 12:20:32;;;;;;;;;;;;;;;7.85;100.00;99393.13;5471875;26;20286;-89
2024/04/08 12:22:58;;;;;;;;;;;;;;;7.72;100.00;99385.78;5411757;26;19928;-88
2024/04/08 12:25:23;;;;;;;;;;;;;;;7.68;100.00;99387.19;5441936;26;19929;-88
2024/04/08 12:27:49;;;;;;;;;;;;;;;7.71;100.00;99382.28;5441895;26;19973;-88
2024/04/08 12:30:14;;;;;;;;;;;;;;;7.64;100.00;99385.91;5411910;26;19928;-88
2024/04/08 12:32:40;;;;;;;;;;;;;;;7.44;100.00;99391.06;5410801;26;19935;-86
2024/04/08 12:35:05;;;;;;;;;;;;;;;7.20;100.00;99392.22;5440658;26;19979;-89
2024/04/08 12:37:31;;;;;;;;;;;;;;;6.92;100.00;99392.06;5440806;26;19928;-88
2024/04/08 12:39:56;;;;;;;;;;;;;;;6.68;100.00;99386.00;5440988;26;19929;-88
2024/04/08 12:42:22;;;;;;;;;;;;;;;6.62;100.00;99396.63;5440447;26;19956;-89
2024/04/08 12:44:47;;;;;;;;;;;;;;;6.63;100.00;99390.25;5411535;26;19952;-90